Time;durP1;ratioP1;P1;durP2;ratioP2;P2;SDS_P1;SDS_P2;PMS_P1;PMS_P2;Temp;Humidity;BMP_temperature;BMP_pressure;BME280_temperature;BME280_humidity;BME280_pressure;Samples;Min_cycle;Max_cycle;Signal;HPM_P1;HPM_P2
2022/12/12 00:01:14;;;;;;;75.77;36.40;;;0.10;99.90;;;;;;5053682;28;20200;-66
2022/12/12 00:03:41;;;;;;;73.80;35.03;;;0.10;99.90;;;;;;5021840;28;20255;-66
2022/12/12 00:06:08;;;;;;;71.40;36.37;;;0.20;99.90;;;;;;5039665;28;20293;-64
2022/12/12 00:08:36;;;;;;;69.80;35.57;;;0.20;99.90;;;;;;5039362;28;20188;-65
2022/12/12 00:11:05;;;;;;;73.97;35.10;;;0.10;99.90;;;;;;5004426;28;20192;-66
2022/12/12 00:13:33;;;;;;;74.40;36.37;;;0.10;99.90;;;;;;5038174;28;20825;-66
2022/12/12 00:16:00;;;;;;;74.23;36.43;;;0.20;99.90;;;;;;5028781;28;20195;-65
2022/12/12 00:18:27;;;;;;;75.33;35.83;;;0.20;99.90;;;;;;5038874;28;20562;-65
2022/12/12 00:20:56;;;;;;;73.43;36.70;;;0.20;99.90;;;;;;5031989;28;20223;-66
2022/12/12 00:23:24;;;;;;;73.97;36.10;;;0.20;95.90;;;;;;5037296;28;20203;-66
2022/12/12 00:26:04;;;;;;;67.40;33.33;;;0.10;95.20;;;;;;5013356;28;20200;-65
2022/12/12 00:28:31;;;;;;;73.90;35.47;;;0.20;99.90;;;;;;5021290;28;20203;-67
2022/12/12 00:30:58;;;;;;;70.27;35.53;;;0.20;99.90;;;;;;5020949;28;20744;-67
2022/12/12 00:33:25;;;;;;;73.93;35.20;;;0.20;99.90;;;;;;5027363;28;20205;-66
2022/12/12 00:35:53;;;;;;;76.53;35.50;;;0.20;94.60;;;;;;5028233;28;20196;-66
2022/12/12 00:38:22;;;;;;;68.47;33.87;;;0.10;90.20;;;;;;5037466;28;20195;-66
2022/12/12 00:40:54;;;;;;;84.50;35.07;;;0.10;99.90;;;;;;5034926;28;20723;-65
2022/12/12 00:43:21;;;;;;;67.97;33.53;;;0.10;99.90;;;;;;5026713;28;20195;-65
2022/12/12 00:45:48;;;;;;;67.43;34.80;;;0.10;99.90;;;;;;5019476;28;20216;-64
2022/12/12 00:48:15;;;;;;;75.80;36.50;;;0.20;99.90;;;;;;5010147;28;20196;-65
2022/12/12 00:50:42;;;;;;;71.83;34.67;;;0.20;99.90;;;;;;5054352;28;20196;-64
2022/12/12 00:53:10;;;;;;;74.37;35.03;;;0.10;99.90;;;;;;5019584;28;20206;-63
2022/12/12 00:55:37;;;;;;;66.67;35.10;;;0.10;99.90;;;;;;5053864;28;20659;-64
2022/12/12 00:58:04;;;;;;;70.70;33.67;;;0.10;99.90;;;;;;5037971;28;20231;-63
2022/12/12 01:00:32;;;;;;;66.37;33.73;;;0.00;99.90;;;;;;5027971;28;20552;-64
2022/12/12 01:02:59;;;;;;;73.90;35.30;;;0.10;99.90;;;;;;5052281;28;20782;-64
2022/12/12 01:05:27;;;;;;;77.63;36.10;;;0.10;99.90;;;;;;5025406;28;20252;-64
2022/12/12 01:07:54;;;;;;;71.37;34.63;;;0.10;99.90;;;;;;5035353;28;20198;-63
2022/12/12 01:10:21;;;;;;;73.27;34.47;;;0.10;99.90;;;;;;5027374;28;20210;-63
2022/12/12 01:12:48;;;;;;;65.97;36.00;;;0.10;99.90;;;;;;5037102;28;20584;-62
2022/12/12 01:15:15;;;;;;;70.03;35.33;;;0.10;99.90;;;;;;5008336;28;20642;-63
2022/12/12 01:17:42;;;;;;;65.83;34.40;;;0.20;99.90;;;;;;5037512;28;20215;-66
2022/12/12 01:20:19;;;;;;;69.30;34.03;;;0.20;99.90;;;;;;5038076;28;20208;-65
2022/12/12 01:22:46;;;;;;;74.47;35.67;;;0.20;99.90;;;;;;5036741;28;20182;-65
2022/12/12 01:25:15;;;;;;;72.33;36.03;;;0.20;99.90;;;;;;5026301;28;20274;-66
2022/12/12 01:27:42;;;;;;;65.77;35.87;;;0.20;99.90;;;;;;5025585;28;20215;-62
2022/12/12 01:30:12;;;;;;;64.10;33.40;;;0.20;99.90;;;;;;5019429;28;20730;-63
2022/12/12 01:32:39;;;;;;;73.60;34.23;;;0.30;99.90;;;;;;5036066;28;20842;-63
2022/12/12 01:35:07;;;;;;;66.00;33.87;;;0.30;99.90;;;;;;5036353;28;20650;-63
2022/12/12 01:37:35;;;;;;;72.87;34.13;;;0.30;99.90;;;;;;5036073;28;20275;-65
2022/12/12 01:40:05;;;;;;;63.27;33.70;;;0.30;99.90;;;;;;5035480;28;20957;-65
2022/12/12 01:42:33;;;;;;;65.67;34.60;;;0.30;99.90;;;;;;5019648;28;20224;-63
2022/12/12 01:45:00;;;;;;;64.90;34.10;;;0.40;99.90;;;;;;5018220;28;20200;-64
2022/12/12 01:47:27;;;;;;;63.40;34.27;;;0.40;99.90;;;;;;5017812;28;20852;-64
2022/12/12 01:50:03;;;;;;;67.13;33.80;;;0.30;99.90;;;;;;5036498;28;20184;-62
2022/12/12 01:52:40;;;;;;;72.13;35.23;;;0.30;99.90;;;;;;5037713;28;20681;-63
2022/12/12 01:55:12;;;;;;;97.50;43.67;;;0.30;99.90;;;;;;5035630;28;20196;-62
2022/12/12 01:57:44;;;;;;;78.97;39.17;;;0.40;99.90;;;;;;5035677;28;20551;-63
2022/12/12 02:00:12;;;;;;;71.30;34.70;;;0.40;99.90;;;;;;5051884;28;22107;-62
2022/12/12 02:02:45;;;;;;;67.80;34.17;;;0.40;99.90;;;;;;5037391;28;20224;-64
2022/12/12 02:05:23;;;;;;;59.03;33.23;;;0.50;99.90;;;;;;5038358;22;20247;-66
2022/12/12 02:07:51;;;;;;;63.67;33.70;;;0.50;99.90;;;;;;5044790;28;20270;-66
2022/12/12 02:10:18;;;;;;;61.73;33.03;;;0.50;99.90;;;;;;5040034;28;20250;-65
2022/12/12 02:12:45;;;;;;;62.67;33.90;;;0.40;99.90;;;;;;5042120;28;20205;-66
2022/12/12 02:15:13;;;;;;;67.30;34.40;;;0.40;99.90;;;;;;5041995;28;20200;-64
2022/12/12 02:18:07;;;;;;;61.83;32.87;;;0.40;99.90;;;;;;5044444;28;20257;-66
2022/12/12 02:21:08;;;;;;;62.00;32.77;;;0.40;99.90;;;;;;5033700;28;20220;-66
2022/12/12 02:24:01;;;;;;;60.73;32.53;;;0.40;99.90;;;;;;5034193;28;20212;-66
2022/12/12 02:26:43;;;;;;;60.00;32.77;;;0.40;99.90;;;;;;5042661;28;20654;-67
2022/12/12 02:29:40;;;;;;;64.50;33.73;;;0.40;99.90;;;;;;5042773;28;20202;-66
2022/12/12 02:32:23;;;;;;;65.70;33.13;;;0.40;99.90;;;;;;5041966;28;21130;-67
2022/12/12 02:35:04;;;;;;;57.93;31.67;;;0.40;99.90;;;;;;5044073;28;20271;-66
2022/12/12 02:37:48;;;;;;;63.30;33.33;;;0.50;99.90;;;;;;5048771;28;20195;-67
2022/12/12 02:40:27;;;;;;;56.50;31.43;;;0.40;99.90;;;;;;5027871;28;20221;-66
2022/12/12 02:43:10;;;;;;;64.10;33.33;;;0.40;99.90;;;;;;5026173;28;20286;-67
2022/12/12 02:45:55;;;;;;;60.27;33.13;;;0.50;99.90;;;;;;5041530;28;20201;-67
2022/12/12 02:48:34;;;;;;;54.47;32.93;;;0.40;99.90;;;;;;5025465;28;20188;-66
2022/12/12 02:51:05;;;;;;;58.50;32.90;;;0.40;99.90;;;;;;5020071;28;20214;-65
2022/12/12 02:53:32;;;;;;;60.80;32.07;;;0.40;99.90;;;;;;5046428;28;20749;-59
2022/12/12 02:56:26;;;;;;;58.20;31.63;;;0.40;99.90;;;;;;5024411;28;20219;-60
2022/12/12 02:58:54;;;;;;;53.67;29.83;;;0.40;99.90;;;;;;5041071;28;20350;-60
2022/12/12 03:01:47;;;;;;;60.80;33.67;;;0.40;99.90;;;;;;5041551;28;20745;-63
2022/12/12 03:07:46;;;;;;;58.70;31.90;;;0.30;99.90;;;;;;5000320;28;21040;-62
2022/12/12 03:10:32;;;;;;;60.57;31.23;;;0.30;99.90;;;;;;5004565;28;20216;-59
2022/12/12 03:13:38;;;;;;;63.23;33.27;;;0.30;99.90;;;;;;5023601;28;20612;-60
2022/12/12 03:16:05;;;;;;;58.37;31.63;;;0.20;99.90;;;;;;5020872;28;20302;-60
2022/12/12 03:18:52;;;;;;;61.03;32.93;;;0.30;99.90;;;;;;5024280;28;20279;-60
2022/12/12 03:21:31;;;;;;;59.40;32.23;;;0.30;99.90;;;;;;5025250;28;20299;-68
2022/12/12 03:24:07;;;;;;;59.97;32.73;;;0.20;99.90;;;;;;5024672;28;20608;-68
2022/12/12 03:26:56;;;;;;;66.67;34.60;;;0.20;99.90;;;;;;5023094;28;20204;-68
2022/12/12 03:29:31;;;;;;;63.10;34.23;;;0.10;99.90;;;;;;5022794;28;20188;-65
2022/12/12 03:32:05;;;;;;;59.03;33.53;;;0.20;99.90;;;;;;5025093;28;20266;-67
2022/12/12 03:34:42;;;;;;;60.73;35.27;;;0.20;99.90;;;;;;5024606;28;20195;-68
2022/12/12 03:37:17;;;;;;;62.23;34.23;;;0.20;99.90;;;;;;5025896;28;20188;-68
2022/12/12 03:40:10;;;;;;;58.57;33.07;;;0.20;99.90;;;;;;5024069;28;20191;-66
2022/12/12 03:42:43;;;;;;;59.30;33.30;;;0.20;99.90;;;;;;5010993;28;20212;-65
2022/12/12 03:45:31;;;;;;;64.53;33.63;;;0.20;99.90;;;;;;5022599;28;20188;-68
2022/12/12 03:48:07;;;;;;;60.30;34.20;;;0.20;99.90;;;;;;5026040;28;20212;-68
2022/12/12 03:50:43;;;;;;;63.77;33.27;;;0.20;99.90;;;;;;5028965;28;20220;-69
2022/12/12 03:53:12;;;;;;;60.60;34.60;;;0.20;99.90;;;;;;5028440;28;20235;-69
2022/12/12 03:56:03;;;;;;;60.83;34.53;;;0.30;99.90;;;;;;5028643;28;20215;-69
2022/12/12 03:58:40;;;;;;;61.10;34.33;;;0.20;99.90;;;;;;5007333;28;20212;-67
2022/12/12 04:01:11;;;;;;;63.80;33.87;;;0.20;99.90;;;;;;4990635;28;20235;-68
2022/12/12 04:04:04;;;;;;;56.60;32.30;;;0.20;99.90;;;;;;5026669;28;21328;-69
2022/12/12 04:06:47;;;;;;;59.40;32.47;;;0.20;99.90;;;;;;5025426;28;20558;-68
2022/12/12 04:15:36;;;;;;;55.83;31.80;;;0.20;99.90;;;;;;5027909;28;20204;-68
2022/12/12 04:18:12;;;;;;;64.17;32.33;;;0.20;99.90;;;;;;5026397;28;20218;-67
2022/12/12 04:24:30;;;;;;;62.63;33.87;;;0.20;99.90;;;;;;5014471;28;20494;-66
2022/12/12 04:27:01;;;;;;;57.53;33.17;;;0.20;99.90;;;;;;4968657;28;20226;-67
2022/12/12 04:29:42;;;;;;;59.47;32.93;;;0.20;99.90;;;;;;4977033;28;20328;-68
2022/12/12 04:32:13;;;;;;;60.43;32.67;;;0.10;99.90;;;;;;5006014;28;20719;-67
2022/12/12 04:34:46;;;;;;;62.37;33.83;;;0.10;99.90;;;;;;5026201;28;20189;-68
2022/12/12 04:37:18;;;;;;;68.03;36.17;;;0.10;99.90;;;;;;5026454;28;20832;-66
2022/12/12 04:39:49;;;;;;;66.07;35.93;;;0.10;99.90;;;;;;5025300;28;20235;-67
2022/12/12 04:42:21;;;;;;;65.13;34.63;;;0.10;99.90;;;;;;5024922;28;20195;-65
2022/12/12 04:44:52;;;;;;;63.93;33.97;;;0.10;99.90;;;;;;5025211;28;20208;-67
2022/12/12 04:47:21;;;;;;;64.30;33.80;;;0.10;99.90;;;;;;5028380;28;20745;-67
2022/12/12 04:49:51;;;;;;;68.87;34.43;;;0.00;99.90;;;;;;5026468;28;20184;-67
2022/12/12 04:52:19;;;;;;;64.93;34.43;;;0.10;99.90;;;;;;5007321;28;20192;-67
2022/12/12 04:54:49;;;;;;;67.87;35.10;;;0.00;99.90;;;;;;5024954;28;20192;-67
2022/12/12 04:57:38;;;;;;;77.77;36.07;;;0.00;99.90;;;;;;5027492;28;20675;-67
2022/12/12 05:00:10;;;;;;;64.63;34.63;;;0.00;99.90;;;;;;5023850;28;20715;-65
2022/12/12 05:02:50;;;;;;;74.33;35.50;;;0.00;99.90;;;;;;5008442;28;20348;-67
2022/12/12 05:05:25;;;;;;;78.60;37.57;;;0.00;99.90;;;;;;5022398;28;20306;-65
2022/12/12 05:07:56;;;;;;;66.93;35.90;;;0.00;99.90;;;;;;5024087;28;20198;-67
2022/12/12 05:10:24;;;;;;;73.80;38.13;;;0.00;99.90;;;;;;5024762;28;20196;-68
2022/12/12 05:12:57;;;;;;;72.40;36.70;;;0.10;99.90;;;;;;5025185;28;20228;-69
2022/12/12 05:15:25;;;;;;;74.17;35.50;;;0.10;99.90;;;;;;5024702;28;20185;-67
2022/12/12 05:18:01;;;;;;;65.13;34.73;;;0.10;99.90;;;;;;5012459;28;20292;-67
2022/12/12 05:20:30;;;;;;;71.07;35.93;;;0.10;99.90;;;;;;5023218;28;20322;-67
2022/12/12 05:22:57;;;;;;;73.17;37.23;;;0.10;99.90;;;;;;5025673;28;20200;-68
2022/12/12 05:25:24;;;;;;;74.03;37.87;;;0.10;99.90;;;;;;5023843;28;20202;-68
2022/12/12 05:27:51;;;;;;;68.37;36.30;;;0.00;99.90;;;;;;5025070;28;20200;-68
2022/12/12 05:30:18;;;;;;;72.97;37.13;;;0.00;99.90;;;;;;4998859;28;20667;-67
2022/12/12 05:32:47;;;;;;;89.17;43.37;;;0.00;99.90;;;;;;5022175;28;20616;-66
2022/12/12 05:35:14;;;;;;;100.73;48.43;;;0.00;99.90;;;;;;5020554;28;20196;-64
2022/12/12 05:37:41;;;;;;;96.07;47.37;;;0.00;99.90;;;;;;4998389;28;20208;-67
2022/12/12 05:40:17;;;;;;;79.97;40.57;;;0.00;99.90;;;;;;5022038;28;20738;-68
2022/12/12 05:42:44;;;;;;;84.40;39.87;;;0.00;99.90;;;;;;5009172;28;20287;-67
2022/12/12 05:45:11;;;;;;;73.43;37.50;;;0.00;99.90;;;;;;5008491;28;20216;-68
2022/12/12 05:47:39;;;;;;;76.10;37.90;;;0.10;99.90;;;;;;5026396;28;20236;-66
2022/12/12 05:50:06;;;;;;;72.50;37.03;;;0.10;99.90;;;;;;5025992;28;20618;-67
2022/12/12 05:52:35;;;;;;;97.80;44.57;;;0.00;99.90;;;;;;5000993;28;20208;-67
2022/12/12 05:55:03;;;;;;;83.20;40.90;;;0.00;99.90;;;;;;5014680;28;20963;-65
2022/12/12 05:57:30;;;;;;;76.53;38.87;;;0.00;99.90;;;;;;5027085;28;20227;-67
2022/12/12 05:59:57;;;;;;;84.43;41.67;;;0.00;99.90;;;;;;5023580;28;20200;-68
2022/12/12 06:02:24;;;;;;;86.40;41.57;;;0.00;99.90;;;;;;5025362;28;20235;-68
2022/12/12 06:04:51;;;;;;;91.83;48.97;;;0.00;99.90;;;;;;4993563;28;20670;-68
2022/12/12 06:07:18;;;;;;;80.17;40.50;;;0.00;99.90;;;;;;5017177;28;20204;-68
2022/12/12 06:09:44;;;;;;;77.00;40.47;;;-0.10;99.90;;;;;;4991004;28;20299;-67
2022/12/12 06:12:12;;;;;;;78.37;42.90;;;-0.10;99.90;;;;;;5022454;28;20695;-68
2022/12/12 06:14:39;;;;;;;75.53;39.27;;;-0.10;99.90;;;;;;5020689;28;20274;-68
2022/12/12 06:17:05;;;;;;;74.63;38.93;;;-0.10;99.90;;;;;;5001194;28;20299;-67
2022/12/12 06:19:33;;;;;;;76.00;37.87;;;-0.10;99.90;;;;;;5024523;28;20200;-65
2022/12/12 06:21:59;;;;;;;78.63;41.60;;;-0.10;99.90;;;;;;5023987;28;20208;-65
2022/12/12 06:24:26;;;;;;;84.83;43.67;;;-0.10;99.90;;;;;;4999588;28;20263;-68
2022/12/12 06:26:53;;;;;;;81.13;40.20;;;-0.10;99.90;;;;;;5005122;28;20200;-68
2022/12/12 06:29:20;;;;;;;75.60;38.43;;;-0.10;99.90;;;;;;5012529;28;20194;-68
2022/12/12 06:31:47;;;;;;;72.80;39.90;;;0.00;99.90;;;;;;5025413;28;20863;-67
2022/12/12 06:34:14;;;;;;;74.73;41.77;;;0.00;99.90;;;;;;5003103;28;20228;-68
2022/12/12 06:36:41;;;;;;;70.80;38.57;;;0.10;99.90;;;;;;5019912;28;20216;-65
2022/12/12 06:39:08;;;;;;;77.03;38.17;;;0.10;99.90;;;;;;5004948;28;20568;-66
2022/12/12 06:41:36;;;;;;;73.17;39.30;;;0.00;99.90;;;;;;5021826;28;20208;-66
2022/12/12 06:44:03;;;;;;;75.60;37.47;;;0.00;99.90;;;;;;4989267;28;20196;-65
2022/12/12 06:46:30;;;;;;;66.93;38.17;;;0.00;99.90;;;;;;5011768;28;20208;-66
2022/12/12 06:48:57;;;;;;;66.13;35.23;;;0.00;99.90;;;;;;5015985;28;20612;-65
2022/12/12 06:51:35;;;;;;;69.73;35.60;;;0.00;99.90;;;;;;5018725;28;20704;-66
2022/12/12 06:54:02;;;;;;;75.23;38.00;;;0.00;99.90;;;;;;5022340;28;20227;-65
2022/12/12 06:56:30;;;;;;;69.53;36.20;;;0.00;99.90;;;;;;5024366;28;20222;-66
2022/12/12 06:58:58;;;;;;;71.20;36.40;;;0.00;99.90;;;;;;5020873;28;20762;-66
2022/12/12 07:01:25;;;;;;;68.33;36.43;;;0.00;99.90;;;;;;5012704;28;20302;-67
2022/12/12 07:03:53;;;;;;;74.00;38.93;;;0.00;99.90;;;;;;5015011;28;20239;-66
2022/12/12 07:06:22;;;;;;;78.80;38.90;;;0.00;99.90;;;;;;5021289;28;20691;-66
2022/12/12 07:08:50;;;;;;;74.50;36.53;;;0.00;99.90;;;;;;5023564;28;20186;-66
2022/12/12 07:11:20;;;;;;;71.27;36.77;;;0.00;99.90;;;;;;5005592;28;20318;-67
2022/12/12 07:13:48;;;;;;;69.87;35.10;;;0.00;99.90;;;;;;5021639;28;20534;-66
2022/12/12 07:16:15;;;;;;;69.40;36.33;;;0.00;99.90;;;;;;5023213;28;20210;-66
2022/12/12 07:18:42;;;;;;;72.93;35.83;;;0.00;99.90;;;;;;4998750;28;20210;-64
2022/12/12 07:21:15;;;;;;;73.87;37.50;;;0.00;99.90;;;;;;5022123;28;20674;-63
2022/12/12 07:23:42;;;;;;;66.80;35.03;;;0.00;99.90;;;;;;5022122;28;20279;-67
2022/12/12 07:26:13;;;;;;;76.80;38.53;;;0.00;99.90;;;;;;5006880;28;20376;-67
2022/12/12 07:28:40;;;;;;;68.03;36.80;;;0.00;99.90;;;;;;5022454;28;20193;-67
2022/12/12 07:31:10;;;;;;;68.97;37.77;;;0.00;99.90;;;;;;4985794;28;20308;-67
2022/12/12 07:33:37;;;;;;;65.57;35.17;;;0.10;99.90;;;;;;5013664;28;20264;-67
2022/12/12 07:36:11;;;;;;;76.13;36.83;;;0.00;99.90;;;;;;5027844;28;20192;-67
2022/12/12 07:38:38;;;;;;;77.57;37.93;;;0.00;99.90;;;;;;5023928;28;20730;-66
2022/12/12 07:41:11;;;;;;;69.63;35.93;;;0.00;99.90;;;;;;5026037;28;20270;-66
2022/12/12 07:43:40;;;;;;;71.47;35.47;;;0.00;99.90;;;;;;5007668;28;20208;-67
2022/12/12 07:46:14;;;;;;;78.87;38.60;;;0.00;99.90;;;;;;5027530;28;20203;-67
2022/12/12 07:48:42;;;;;;;74.97;37.87;;;0.00;99.90;;;;;;5011156;28;20275;-67
2022/12/12 07:51:09;;;;;;;70.20;37.70;;;0.00;99.90;;;;;;5027731;28;20650;-67
2022/12/12 07:53:36;;;;;;;71.53;37.30;;;0.10;99.90;;;;;;5029707;28;20210;-67
2022/12/12 07:56:09;;;;;;;70.17;37.03;;;0.10;99.90;;;;;;5028391;28;20193;-65
2022/12/12 07:58:37;;;;;;;73.03;36.60;;;0.20;99.90;;;;;;5008061;28;20286;-65
2022/12/12 08:01:13;;;;;;;64.27;34.33;;;0.20;99.90;;;;;;5023832;28;20216;-64
2022/12/12 08:03:43;;;;;;;67.30;35.97;;;0.10;99.90;;;;;;5027393;28;20587;-66
2022/12/12 08:06:11;;;;;;;62.33;33.63;;;0.10;99.90;;;;;;5003222;28;20197;-66
2022/12/12 08:08:38;;;;;;;66.20;35.50;;;0.10;99.90;;;;;;5018654;28;20264;-66
2022/12/12 08:11:10;;;;;;;70.00;33.70;;;0.10;99.90;;;;;;5026498;28;20215;-63
2022/12/12 08:13:39;;;;;;;65.60;34.70;;;0.10;99.90;;;;;;5026192;28;20643;-66
2022/12/12 08:16:11;;;;;;;59.43;34.30;;;0.10;99.90;;;;;;5008938;28;20374;-63
2022/12/12 08:18:38;;;;;;;57.93;34.17;;;0.20;99.90;;;;;;4992534;28;20240;-65
2022/12/12 08:21:12;;;;;;;71.13;38.40;;;0.20;99.90;;;;;;5025870;28;20811;-64
2022/12/12 08:23:40;;;;;;;69.50;35.43;;;0.20;99.90;;;;;;5027266;28;20620;-65
2022/12/12 08:26:10;;;;;;;63.90;36.63;;;0.20;99.90;;;;;;5006347;28;20184;-63
2022/12/12 08:28:37;;;;;;;70.13;38.50;;;0.30;99.90;;;;;;5000248;28;20664;-66
2022/12/12 08:31:04;;;;;;;68.73;39.83;;;0.30;99.90;;;;;;5017169;28;20595;-66
2022/12/12 08:33:31;;;;;;;68.53;35.87;;;0.30;99.90;;;;;;5009952;28;20451;-66
2022/12/12 08:35:59;;;;;;;60.77;33.27;;;0.30;99.90;;;;;;5014332;28;20204;-65
2022/12/12 08:38:27;;;;;;;63.60;34.33;;;0.30;99.90;;;;;;5026905;28;20206;-66
2022/12/12 08:40:54;;;;;;;78.03;42.40;;;0.20;99.90;;;;;;5026617;28;20196;-66
2022/12/12 08:43:21;;;;;;;64.03;35.47;;;0.20;99.90;;;;;;5027576;28;20196;-66
2022/12/12 08:45:48;;;;;;;59.20;33.50;;;0.20;99.90;;;;;;5024606;28;20291;-66
2022/12/12 08:48:15;;;;;;;63.73;33.57;;;0.10;99.90;;;;;;5024682;28;20716;-66
2022/12/12 08:50:42;;;;;;;60.80;33.73;;;0.20;99.90;;;;;;5026757;28;20196;-61
2022/12/12 08:53:09;;;;;;;63.40;35.77;;;0.20;99.90;;;;;;5025939;28;20222;-66
2022/12/12 08:55:36;;;;;;;63.60;34.30;;;0.30;99.90;;;;;;5025079;28;20219;-66
2022/12/12 08:58:03;;;;;;;60.80;34.53;;;0.40;99.90;;;;;;5025421;28;20196;-64
2022/12/12 09:00:30;;;;;;;58.17;34.50;;;0.50;99.90;;;;;;5025201;28;20189;-65
2022/12/12 09:02:57;;;;;;;64.07;34.90;;;0.60;95.80;;;;;;5002094;28;20219;-66
2022/12/12 09:05:24;;;;;;;63.97;35.97;;;0.60;59.50;;;;;;5026669;28;20243;-65
2022/12/12 09:07:51;;;;;;;60.90;35.07;;;0.60;40.20;;;;;;5025650;28;20272;-66
2022/12/12 09:10:18;;;;;;;56.97;34.60;;;0.60;42.90;;;;;;5009946;28;20192;-67
2022/12/12 09:12:45;;;;;;;59.07;32.93;;;0.80;49.50;;;;;;5008708;28;20210;-66
2022/12/12 09:15:13;;;;;;;54.83;31.63;;;0.70;28.90;;;;;;5016409;28;20591;-66
2022/12/12 09:17:40;;;;;;;51.00;31.63;;;0.80;22.30;;;;;;5009756;28;20196;-66
2022/12/12 09:20:08;;;;;;;52.43;31.47;;;0.80;17.20;;;;;;5007467;28;20275;-67
2022/12/12 09:22:35;;;;;;;48.07;30.97;;;0.80;13.20;;;;;;5023631;28;20227;-63
2022/12/12 09:25:03;;;;;;;53.03;31.47;;;0.70;1.00;;;;;;5025022;28;20716;-65
2022/12/12 09:27:30;;;;;;;59.33;32.57;;;0.50;15.60;;;;;;4988067;28;20201;-66
2022/12/12 09:29:57;;;;;;;61.20;36.63;;;0.50;29.30;;;;;;5015945;28;20258;-66
2022/12/12 09:32:24;;;;;;;62.60;36.53;;;0.50;37.80;;;;;;4991760;28;20302;-66
2022/12/12 09:34:51;;;;;;;58.93;34.30;;;0.60;35.10;;;;;;5008010;28;20583;-66
2022/12/12 09:37:18;;;;;;;58.83;34.17;;;0.60;27.80;;;;;;5008762;28;20235;-66
2022/12/12 09:39:45;;;;;;;54.43;32.83;;;0.80;35.10;;;;;;5009126;28;20204;-66
2022/12/12 09:42:18;;;;;;;61.97;33.83;;;0.90;27.40;;;;;;5020292;28;20702;-65
2022/12/12 09:44:46;;;;;;;58.23;34.83;;;1.10;18.80;;;;;;5020494;28;20244;-65
2022/12/12 09:47:40;;;;;;;58.27;33.23;;;1.10;9.70;;;;;;4991731;28;20200;-67
2022/12/12 09:50:35;;;;;;;53.73;31.90;;;1.10;3.80;;;;;;5005614;28;20216;-65
2022/12/12 09:53:09;;;;;;;53.83;32.80;;;1.20;1.00;;;;;;5007079;28;21006;-64
2022/12/12 09:55:58;;;;;;;55.23;32.50;;;1.10;1.00;;;;;;4992270;28;20200;-67
2022/12/12 09:58:40;;;;;;;64.67;38.97;;;1.00;1.00;;;;;;5025384;28;20367;-66
2022/12/12 10:01:38;;;;;;;55.03;32.57;;;1.00;1.00;;;;;;5022827;28;20188;-65
2022/12/12 10:04:09;;;;;;;62.47;36.10;;;1.20;1.00;;;;;;5026710;28;20236;-66
2022/12/12 10:06:53;;;;;;;67.77;43.20;;;1.20;1.00;;;;;;5007808;28;20215;-67
2022/12/12 10:09:44;;;;;;;53.53;34.67;;;1.20;1.00;;;;;;5022287;28;20191;-67
2022/12/12 10:12:15;;;;;;;58.60;36.97;;;1.40;1.00;;;;;;4999784;28;20201;-67
2022/12/12 10:14:47;;;;;;;59.53;39.80;;;1.60;1.00;;;;;;5006793;28;20216;-65
2022/12/12 10:17:27;;;;;;;52.37;32.37;;;1.70;1.00;;;;;;5024674;28;20638;-67
2022/12/12 10:20:15;;;;;;;43.77;28.83;;;2.00;1.00;;;;;;4985818;28;20290;-66
2022/12/12 10:22:51;;;;;;;46.33;28.87;;;1.90;1.00;;;;;;5012650;28;20528;-62
2022/12/12 10:25:37;;;;;;;49.10;31.07;;;1.80;1.00;;;;;;5026288;28;20195;-68
2022/12/12 10:28:15;;;;;;;44.80;29.63;;;1.80;1.00;;;;;;5001036;28;20207;-67
2022/12/12 10:31:08;;;;;;;53.37;33.17;;;1.80;1.00;;;;;;5001550;28;20894;-62
2022/12/12 10:33:50;;;;;;;51.00;31.47;;;2.00;1.00;;;;;;5001230;28;20590;-67
2022/12/12 10:36:20;;;;;;;42.47;28.60;;;2.00;1.00;;;;;;5024851;28;20282;-67
2022/12/12 10:39:15;;;;;;;43.83;28.57;;;1.90;1.00;;;;;;4983518;28;20215;-66
2022/12/12 10:41:48;;;;;;;44.33;27.57;;;1.90;1.00;;;;;;5021880;28;20207;-62
2022/12/12 10:44:24;;;;;;;50.40;30.77;;;2.00;1.00;;;;;;4998031;28;20210;-64
2022/12/12 10:47:00;;;;;;;46.37;30.23;;;2.10;1.00;;;;;;5006223;28;20191;-66
2022/12/12 10:49:29;;;;;;;47.10;30.33;;;2.00;1.00;;;;;;5004941;28;20227;-66
2022/12/12 10:51:58;;;;;;;48.67;31.27;;;2.00;1.00;;;;;;5024559;28;20519;-66
2022/12/12 10:54:27;;;;;;;45.73;26.63;;;2.00;1.00;;;;;;4991445;28;20295;-66
2022/12/12 10:57:13;;;;;;;43.77;28.27;;;2.10;1.00;;;;;;5027572;28;20674;-66
2022/12/12 10:59:51;;;;;;;44.77;30.00;;;1.60;1.00;;;;;;5024016;28;20567;-67
2022/12/12 11:02:39;;;;;;;46.77;29.90;;;1.60;1.00;;;;;;5010206;28;20220;-66
2022/12/12 11:05:24;;;;;;;41.80;29.60;;;1.70;1.00;;;;;;5024927;28;20331;-68
2022/12/12 11:08:02;;;;;;;41.17;27.07;;;1.80;1.00;;;;;;5028828;28;20205;-66
2022/12/12 11:10:36;;;;;;;39.07;26.27;;;1.60;1.00;;;;;;5025454;28;20231;-66
2022/12/12 11:13:09;;;;;;;40.30;25.40;;;1.60;1.00;;;;;;5028803;28;20376;-66
2022/12/12 11:15:43;;;;;;;33.23;22.70;;;1.70;1.00;;;;;;5020192;28;20196;-68
2022/12/12 11:18:15;;;;;;;38.77;23.93;;;1.70;1.00;;;;;;5011878;28;20398;-69
2022/12/12 11:20:48;;;;;;;37.93;23.23;;;1.80;1.00;;;;;;5010989;28;20204;-65
2022/12/12 11:23:24;;;;;;;32.77;22.33;;;2.20;1.00;;;;;;5009824;28;20252;-69
2022/12/12 11:26:00;;;;;;;34.53;23.83;;;2.10;1.00;;;;;;4987343;28;20567;-68
2022/12/12 11:28:34;;;;;;;36.40;23.30;;;2.20;1.00;;;;;;5025359;28;20218;-66
2022/12/12 11:31:06;;;;;;;33.43;23.53;;;2.30;1.00;;;;;;5025899;28;20211;-68
2022/12/12 11:33:43;;;;;;;34.30;22.93;;;2.20;1.00;;;;;;5027778;28;20224;-65
2022/12/12 11:36:17;;;;;;;43.00;27.20;;;1.70;1.00;;;;;;5028777;28;20196;-66
2022/12/12 11:38:55;;;;;;;64.53;41.03;;;1.80;1.00;;;;;;5008865;28;20208;-67
2022/12/12 11:41:22;;;;;;;37.30;25.17;;;2.00;1.00;;;;;;5021793;28;20206;-65
2022/12/12 11:43:49;;;;;;;36.60;23.50;;;1.80;1.00;;;;;;5007912;28;20219;-68
2022/12/12 11:46:25;;;;;;;39.37;25.73;;;1.70;1.00;;;;;;5029788;28;20271;-68
2022/12/12 11:48:52;;;;;;;56.80;37.00;;;1.80;1.00;;;;;;5009861;28;20202;-65
2022/12/12 11:51:31;;;;;;;45.17;29.23;;;1.70;1.00;;;;;;5028335;28;20226;-66
2022/12/12 11:53:59;;;;;;;44.07;28.90;;;1.90;1.00;;;;;;4994575;28;20218;-68
2022/12/12 11:56:57;;;;;;;30.87;20.63;;;1.80;1.00;;;;;;4993276;28;20323;-67
2022/12/12 12:00:00;;;;;;;52.87;33.53;;;1.70;1.00;;;;;;5008756;28;20680;-68
2022/12/12 12:02:49;;;;;;;27.97;19.10;;;1.70;1.00;;;;;;5027694;28;20246;-68
2022/12/12 12:05:25;;;;;;;29.50;19.83;;;1.80;1.00;;;;;;5011357;28;20235;-66
2022/12/12 12:08:10;;;;;;;31.27;19.37;;;1.90;1.00;;;;;;5013879;28;20259;-62
2022/12/12 12:10:41;;;;;;;35.30;21.47;;;1.80;1.00;;;;;;5020971;28;20188;-66
2022/12/12 12:13:29;;;;;;;29.53;20.33;;;1.90;1.00;;;;;;5006827;28;20200;-66
2022/12/12 12:16:10;;;;;;;34.87;21.40;;;1.90;1.00;;;;;;5028959;28;20193;-68
2022/12/12 12:18:56;;;;;;;36.23;23.67;;;1.90;1.00;;;;;;5025948;28;20254;-67
2022/12/12 12:22:08;;;;;;;74.13;42.70;;;1.80;1.00;;;;;;5002767;28;20196;-68
2022/12/12 12:24:38;;;;;;;57.43;35.27;;;1.70;1.00;;;;;;4973541;28;20204;-68
2022/12/12 12:27:22;;;;;;;47.13;31.20;;;1.40;1.00;;;;;;5028315;28;20616;-69
2022/12/12 12:30:11;;;;;;;35.93;23.63;;;1.60;1.00;;;;;;5027545;28;20502;-66
2022/12/12 12:32:53;;;;;;;36.60;23.33;;;1.80;1.00;;;;;;5001869;28;20517;-68
2022/12/12 12:35:23;;;;;;;40.03;25.67;;;1.80;1.00;;;;;;5027316;28;20275;-66
2022/12/12 12:38:00;;;;;;;40.13;26.73;;;1.70;1.00;;;;;;4986102;28;20262;-67
2022/12/12 12:41:07;;;;;;;37.57;22.53;;;1.70;1.00;;;;;;4999483;28;20207;-66
2022/12/12 12:43:55;;;;;;;38.20;22.77;;;1.80;1.00;;;;;;5023898;28;20270;-68
2022/12/12 12:46:46;;;;;;;37.03;23.20;;;1.90;1.00;;;;;;5007388;28;20430;-66
2022/12/12 12:49:27;;;;;;;42.97;23.93;;;1.90;1.00;;;;;;5023243;28;20683;-67
2022/12/12 12:52:10;;;;;;;36.37;22.77;;;1.90;1.00;;;;;;5023635;28;20219;-68
2022/12/12 12:54:44;;;;;;;36.13;23.13;;;1.90;1.00;;;;;;5025603;28;20196;-68
2022/12/12 12:57:27;;;;;;;34.47;23.07;;;2.10;1.00;;;;;;5000534;28;20719;-68
2022/12/12 12:59:58;;;;;;;37.27;23.37;;;2.20;1.00;;;;;;5000649;28;20196;-68
2022/12/12 13:02:43;;;;;;;31.03;21.47;;;2.20;1.00;;;;;;5026773;28;20518;-68
2022/12/12 13:05:27;;;;;;;33.07;22.37;;;2.30;1.00;;;;;;5023487;28;20703;-68
2022/12/12 13:08:20;;;;;;;32.87;22.20;;;2.30;1.00;;;;;;4997653;28;20267;-68
2022/12/12 13:10:51;;;;;;;35.83;23.00;;;2.20;1.00;;;;;;5020883;28;20676;-68
2022/12/12 13:13:26;;;;;;;34.77;22.90;;;2.20;1.00;;;;;;4999857;28;20658;-66
2022/12/12 13:16:03;;;;;;;35.70;23.97;;;2.10;1.00;;;;;;5022216;28;20244;-66
2022/12/12 13:18:31;;;;;;;37.43;23.53;;;2.00;1.00;;;;;;5024821;28;20208;-66
2022/12/12 13:21:31;;;;;;;37.67;23.27;;;2.10;1.00;;;;;;5027354;28;20192;-68
2022/12/12 13:24:02;;;;;;;41.43;23.70;;;2.10;1.00;;;;;;5025259;28;20204;-68